sensor_id;sensor_type;location;lat;lon;timestamp;P1;durP1;ratioP1;P2;durP2;ratioP2
19887;SDS011;10106;51.332;12.336;2023-05-10T05:07:27;3.50;;;2.70;;
19887;SDS011;10106;51.332;12.336;2023-05-10T05:09:56;4.00;;;2.70;;
19887;SDS011;10106;51.332;12.336;2023-05-10T05:12:22;4.60;;;3.30;;
19887;SDS011;10106;51.332;12.336;2023-05-10T05:14:47;3.83;;;3.17;;
19887;SDS011;10106;51.332;12.336;2023-05-10T05:17:13;4.40;;;3.37;;
19887;SDS011;10106;51.332;12.336;2023-05-10T05:19:39;5.00;;;3.20;;
19887;SDS011;10106;51.332;12.336;2023-05-10T05:22:06;3.53;;;3.00;;
19887;SDS011;10106;51.332;12.336;2023-05-10T05:24:39;4.20;;;3.40;;
19887;SDS011;10106;51.332;12.336;2023-05-10T05:27:04;3.40;;;3.10;;
19887;SDS011;10106;51.332;12.336;2023-05-10T05:29:31;3.72;;;3.15;;
19887;SDS011;10106;51.332;12.336;2023-05-10T05:31:57;2.80;;;2.50;;
19887;SDS011;10106;51.332;12.336;2023-05-10T05:34:22;4.67;;;2.83;;
19887;SDS011;10106;51.332;12.336;2023-05-10T05:36:52;3.53;;;2.90;;
19887;SDS011;10106;51.332;12.336;2023-05-10T05:39:18;5.07;;;2.50;;
19887;SDS011;10106;51.332;12.336;2023-05-10T05:41:44;3.30;;;2.97;;
19887;SDS011;10106;51.332;12.336;2023-05-10T05:44:11;3.05;;;2.70;;
19887;SDS011;10106;51.332;12.336;2023-05-10T05:46:37;4.30;;;3.00;;
19887;SDS011;10106;51.332;12.336;2023-05-10T05:49:03;3.37;;;3.07;;
19887;SDS011;10106;51.332;12.336;2023-05-10T06:40:17;3.60;;;2.70;;
19887;SDS011;10106;51.332;12.336;2023-05-10T06:42:43;4.33;;;2.53;;
19887;SDS011;10106;51.332;12.336;2023-05-10T06:45:10;4.07;;;3.10;;
19887;SDS011;10106;51.332;12.336;2023-05-10T06:47:36;3.90;;;3.30;;
19887;SDS011;10106;51.332;12.336;2023-05-10T06:50:02;3.60;;;3.10;;
19887;SDS011;10106;51.332;12.336;2023-05-10T06:52:28;3.30;;;3.00;;
19887;SDS011;10106;51.332;12.336;2023-05-10T06:54:53;4.13;;;2.88;;
19887;SDS011;10106;51.332;12.336;2023-05-10T06:59:45;3.65;;;3.20;;
19887;SDS011;10106;51.332;12.336;2023-05-10T07:02:11;3.10;;;2.80;;
19887;SDS011;10106;51.332;12.336;2023-05-10T07:04:37;4.00;;;3.27;;
19887;SDS011;10106;51.332;12.336;2023-05-10T07:07:03;4.20;;;2.60;;
19887;SDS011;10106;51.332;12.336;2023-05-10T07:09:29;3.43;;;2.80;;
19887;SDS011;10106;51.332;12.336;2023-05-10T07:11:55;2.50;;;2.30;;
19887;SDS011;10106;51.332;12.336;2023-05-10T07:14:22;3.20;;;2.77;;
19887;SDS011;10106;51.332;12.336;2023-05-10T07:16:48;3.20;;;2.40;;
19887;SDS011;10106;51.332;12.336;2023-05-10T07:19:14;2.83;;;2.50;;
19887;SDS011;10106;51.332;12.336;2023-05-10T07:21:40;3.70;;;2.85;;
19887;SDS011;10106;51.332;12.336;2023-05-10T07:24:08;3.90;;;3.10;;
19887;SDS011;10106;51.332;12.336;2023-05-10T07:26:34;6.70;;;3.20;;
19887;SDS011;10106;51.332;12.336;2023-05-10T07:28:59;3.30;;;2.80;;
19887;SDS011;10106;51.332;12.336;2023-05-10T07:31:26;3.47;;;2.90;;
19887;SDS011;10106;51.332;12.336;2023-05-10T07:33:52;5.67;;;3.20;;
19887;SDS011;10106;51.332;12.336;2023-05-10T07:36:18;5.60;;;3.00;;
19887;SDS011;10106;51.332;12.336;2023-05-10T07:38:44;3.53;;;3.23;;
19887;SDS011;10106;51.332;12.336;2023-05-10T07:41:10;2.93;;;2.73;;
19887;SDS011;10106;51.332;12.336;2023-05-10T07:43:37;4.33;;;3.20;;
19887;SDS011;10106;51.332;12.336;2023-05-10T07:46:09;3.17;;;2.87;;
19887;SDS011;10106;51.332;12.336;2023-05-10T07:48:36;3.80;;;3.22;;
19887;SDS011;10106;51.332;12.336;2023-05-10T07:51:02;3.70;;;3.30;;
19887;SDS011;10106;51.332;12.336;2023-05-10T07:53:28;4.00;;;3.60;;
19887;SDS011;10106;51.332;12.336;2023-05-10T07:55:54;3.42;;;3.10;;
19887;SDS011;10106;51.332;12.336;2023-05-10T07:58:25;4.07;;;3.50;;
19887;SDS011;10106;51.332;12.336;2023-05-10T08:00:51;3.33;;;2.65;;
19887;SDS011;10106;51.332;12.336;2023-05-10T08:03:17;2.90;;;2.35;;
19887;SDS011;10106;51.332;12.336;2023-05-10T08:05:43;4.83;;;3.60;;
19887;SDS011;10106;51.332;12.336;2023-05-10T08:08:09;3.10;;;2.80;;
19887;SDS011;10106;51.332;12.336;2023-05-10T08:10:34;4.13;;;3.07;;
19887;SDS011;10106;51.332;12.336;2023-05-10T08:13:00;3.30;;;3.00;;
19887;SDS011;10106;51.332;12.336;2023-05-10T08:15:26;2.90;;;2.60;;
19887;SDS011;10106;51.332;12.336;2023-05-10T08:17:52;4.00;;;3.00;;
19887;SDS011;10106;51.332;12.336;2023-05-10T08:20:18;4.60;;;3.40;;
19887;SDS011;10106;51.332;12.336;2023-05-10T08:22:47;4.07;;;2.77;;
19887;SDS011;10106;51.332;12.336;2023-05-10T08:25:12;3.37;;;3.07;;
19887;SDS011;10106;51.332;12.336;2023-05-10T08:27:39;5.40;;;3.50;;
19887;SDS011;10106;51.332;12.336;2023-05-10T08:30:05;4.47;;;3.17;;
19887;SDS011;10106;51.332;12.336;2023-05-10T08:32:31;5.00;;;3.83;;
19887;SDS011;10106;51.332;12.336;2023-05-10T08:34:57;3.40;;;3.10;;
19887;SDS011;10106;51.332;12.336;2023-05-10T08:37:23;5.70;;;3.33;;
19887;SDS011;10106;51.332;12.336;2023-05-10T08:39:50;4.47;;;3.47;;
19887;SDS011;10106;51.332;12.336;2023-05-10T08:42:16;2.90;;;2.60;;
19887;SDS011;10106;51.332;12.336;2023-05-10T08:44:48;5.97;;;3.30;;
19887;SDS011;10106;51.332;12.336;2023-05-10T08:47:15;3.33;;;3.00;;
19887;SDS011;10106;51.332;12.336;2023-05-10T08:49:43;3.03;;;2.73;;
19887;SDS011;10106;51.332;12.336;2023-05-10T08:52:12;3.23;;;2.53;;
19887;SDS011;10106;51.332;12.336;2023-05-10T08:54:41;4.53;;;3.20;;
19887;SDS011;10106;51.332;12.336;2023-05-10T08:57:07;5.40;;;3.10;;
19887;SDS011;10106;51.332;12.336;2023-05-10T08:59:33;3.53;;;2.80;;
19887;SDS011;10106;51.332;12.336;2023-05-10T09:01:59;4.60;;;3.07;;
19887;SDS011;10106;51.332;12.336;2023-05-10T13:02:01;5.68;;;4.72;;
19887;SDS011;10106;51.332;12.336;2023-05-10T13:04:27;6.47;;;4.37;;
19887;SDS011;10106;51.332;12.336;2023-05-10T13:06:53;5.77;;;4.40;;
19887;SDS011;10106;51.332;12.336;2023-05-10T13:09:23;4.73;;;3.87;;
19887;SDS011;10106;51.332;12.336;2023-05-10T13:11:53;6.43;;;4.33;;
19887;SDS011;10106;51.332;12.336;2023-05-10T13:14:19;6.17;;;4.10;;
19887;SDS011;10106;51.332;12.336;2023-05-10T13:16:47;5.33;;;4.00;;
19887;SDS011;10106;51.332;12.336;2023-05-10T13:19:13;6.77;;;4.20;;
19887;SDS011;10106;51.332;12.336;2023-05-10T13:21:42;5.43;;;3.80;;
19887;SDS011;10106;51.332;12.336;2023-05-10T13:24:09;5.63;;;4.10;;
19887;SDS011;10106;51.332;12.336;2023-05-10T13:26:36;4.60;;;3.53;;
19887;SDS011;10106;51.332;12.336;2023-05-10T13:29:02;5.80;;;3.90;;
19887;SDS011;10106;51.332;12.336;2023-05-10T13:31:28;4.73;;;4.27;;
19887;SDS011;10106;51.332;12.336;2023-05-10T13:33:54;4.60;;;4.00;;
19887;SDS011;10106;51.332;12.336;2023-05-10T13:36:20;4.60;;;3.87;;
19887;SDS011;10106;51.332;12.336;2023-05-10T13:38:46;5.70;;;4.03;;
19887;SDS011;10106;51.332;12.336;2023-05-10T13:41:11;4.70;;;3.50;;
19887;SDS011;10106;51.332;12.336;2023-05-10T13:43:37;4.40;;;3.53;;
19887;SDS011;10106;51.332;12.336;2023-05-10T13:46:03;5.20;;;3.60;;
19887;SDS011;10106;51.332;12.336;2023-05-10T13:48:29;5.50;;;3.00;;
19887;SDS011;10106;51.332;12.336;2023-05-10T13:50:54;3.97;;;3.57;;
19887;SDS011;10106;51.332;12.336;2023-05-10T13:53:21;4.43;;;3.33;;
19887;SDS011;10106;51.332;12.336;2023-05-10T13:55:46;6.50;;;4.17;;
19887;SDS011;10106;51.332;12.336;2023-05-10T13:58:12;5.00;;;3.40;;
19887;SDS011;10106;51.332;12.336;2023-05-10T14:00:38;4.47;;;3.07;;
19887;SDS011;10106;51.332;12.336;2023-05-10T14:03:04;3.60;;;2.60;;
19887;SDS011;10106;51.332;12.336;2023-05-10T14:05:31;4.60;;;2.23;;
19887;SDS011;10106;51.332;12.336;2023-05-10T14:07:56;2.13;;;2.03;;
19887;SDS011;10106;51.332;12.336;2023-05-10T14:10:22;2.00;;;1.80;;
19887;SDS011;10106;51.332;12.336;2023-05-10T14:12:49;1.73;;;1.63;;
19887;SDS011;10106;51.332;12.336;2023-05-10T14:15:15;2.50;;;1.40;;
19887;SDS011;10106;51.332;12.336;2023-05-10T14:17:41;2.00;;;1.57;;
19887;SDS011;10106;51.332;12.336;2023-05-10T14:20:07;1.60;;;1.50;;
19887;SDS011;10106;51.332;12.336;2023-05-10T14:22:33;2.60;;;1.63;;
19887;SDS011;10106;51.332;12.336;2023-05-10T14:25:03;1.40;;;1.30;;
19887;SDS011;10106;51.332;12.336;2023-05-10T14:27:29;1.63;;;1.40;;
19887;SDS011;10106;51.332;12.336;2023-05-10T14:29:55;2.10;;;1.90;;
19887;SDS011;10106;51.332;12.336;2023-05-10T14:32:21;2.03;;;1.83;;
19887;SDS011;10106;51.332;12.336;2023-05-10T14:34:47;1.97;;;1.77;;
19887;SDS011;10106;51.332;12.336;2023-05-10T14:37:13;3.47;;;2.43;;
19887;SDS011;10106;51.332;12.336;2023-05-10T14:39:39;2.97;;;2.47;;
19887;SDS011;10106;51.332;12.336;2023-05-10T14:42:05;2.47;;;2.23;;
19887;SDS011;10106;51.332;12.336;2023-05-10T14:44:30;3.10;;;2.80;;
19887;SDS011;10106;51.332;12.336;2023-05-10T14:46:56;2.40;;;2.00;;
19887;SDS011;10106;51.332;12.336;2023-05-10T14:49:22;2.80;;;1.87;;
19887;SDS011;10106;51.332;12.336;2023-05-10T14:51:50;2.93;;;2.33;;
19887;SDS011;10106;51.332;12.336;2023-05-10T14:54:17;2.40;;;1.80;;
19887;SDS011;10106;51.332;12.336;2023-05-10T14:56:43;2.40;;;1.77;;
19887;SDS011;10106;51.332;12.336;2023-05-10T14:59:10;3.03;;;1.87;;
19887;SDS011;10106;51.332;12.336;2023-05-10T15:01:39;2.60;;;1.67;;
19887;SDS011;10106;51.332;12.336;2023-05-10T15:04:06;1.70;;;1.43;;
19887;SDS011;10106;51.332;12.336;2023-05-10T15:06:33;1.63;;;1.30;;
19887;SDS011;10106;51.332;12.336;2023-05-10T15:09:00;2.60;;;1.60;;
19887;SDS011;10106;51.332;12.336;2023-05-10T15:11:28;1.30;;;1.20;;
19887;SDS011;10106;51.332;12.336;2023-05-10T15:13:57;1.70;;;1.60;;
19887;SDS011;10106;51.332;12.336;2023-05-10T15:16:31;1.73;;;1.63;;
19887;SDS011;10106;51.332;12.336;2023-05-10T15:18:56;4.10;;;1.80;;
19887;SDS011;10106;51.332;12.336;2023-05-10T15:21:22;2.17;;;1.67;;
19887;SDS011;10106;51.332;12.336;2023-05-10T15:23:49;2.10;;;1.60;;
19887;SDS011;10106;51.332;12.336;2023-05-10T15:26:15;1.90;;;1.30;;
19887;SDS011;10106;51.332;12.336;2023-05-10T15:28:47;1.50;;;1.40;;
19887;SDS011;10106;51.332;12.336;2023-05-10T15:31:14;1.33;;;1.23;;
19887;SDS011;10106;51.332;12.336;2023-05-10T15:33:40;1.73;;;1.30;;
19887;SDS011;10106;51.332;12.336;2023-05-10T15:36:06;1.40;;;1.30;;
19887;SDS011;10106;51.332;12.336;2023-05-10T15:38:31;1.90;;;1.47;;
19887;SDS011;10106;51.332;12.336;2023-05-10T15:41:01;1.87;;;1.50;;
19887;SDS011;10106;51.332;12.336;2023-05-10T15:43:26;1.90;;;1.80;;
19887;SDS011;10106;51.332;12.336;2023-05-10T15:45:52;1.30;;;1.20;;
19887;SDS011;10106;51.332;12.336;2023-05-10T15:48:19;1.40;;;1.30;;
19887;SDS011;10106;51.332;12.336;2023-05-10T15:50:44;2.00;;;1.33;;
19887;SDS011;10106;51.332;12.336;2023-05-10T15:53:10;1.40;;;1.30;;
19887;SDS011;10106;51.332;12.336;2023-05-10T15:55:37;1.17;;;1.10;;
19887;SDS011;10106;51.332;12.336;2023-05-10T15:58:03;1.33;;;1.10;;
19887;SDS011;10106;51.332;12.336;2023-05-10T16:00:28;1.30;;;1.20;;
19887;SDS011;10106;51.332;12.336;2023-05-10T16:02:54;1.10;;;1.10;;
19887;SDS011;10106;51.332;12.336;2023-05-10T16:05:20;1.40;;;1.30;;
19887;SDS011;10106;51.332;12.336;2023-05-10T16:07:46;1.50;;;1.40;;
19887;SDS011;10106;51.332;12.336;2023-05-10T16:10:16;1.90;;;1.00;;
19887;SDS011;10106;51.332;12.336;2023-05-10T16:12:41;2.07;;;1.60;;
19887;SDS011;10106;51.332;12.336;2023-05-10T16:15:07;1.27;;;1.17;;
19887;SDS011;10106;51.332;12.336;2023-05-10T16:17:33;1.00;;;1.00;;
19887;SDS011;10106;51.332;12.336;2023-05-10T16:20:00;1.50;;;1.40;;
19887;SDS011;10106;51.332;12.336;2023-05-10T16:22:26;1.43;;;1.10;;
19887;SDS011;10106;51.332;12.336;2023-05-10T16:24:53;1.20;;;1.10;;
19887;SDS011;10106;51.332;12.336;2023-05-10T16:27:19;1.20;;;1.10;;
19887;SDS011;10106;51.332;12.336;2023-05-10T16:29:45;1.07;;;1.07;;
19887;SDS011;10106;51.332;12.336;2023-05-10T16:32:11;1.03;;;0.93;;
19887;SDS011;10106;51.332;12.336;2023-05-10T16:34:37;2.50;;;0.90;;
19887;SDS011;10106;51.332;12.336;2023-05-10T16:37:03;0.90;;;0.87;;
19887;SDS011;10106;51.332;12.336;2023-05-10T16:39:29;1.03;;;1.03;;
19887;SDS011;10106;51.332;12.336;2023-05-10T16:41:56;2.30;;;1.33;;
19887;SDS011;10106;51.332;12.336;2023-05-10T16:44:21;1.57;;;1.20;;
19887;SDS011;10106;51.332;12.336;2023-05-10T16:46:47;0.90;;;0.90;;
19887;SDS011;10106;51.332;12.336;2023-05-10T16:49:13;0.90;;;0.90;;
19887;SDS011;10106;51.332;12.336;2023-05-10T16:51:39;1.17;;;1.13;;
19887;SDS011;10106;51.332;12.336;2023-05-10T16:54:05;2.90;;;1.83;;
19887;SDS011;10106;51.332;12.336;2023-05-10T16:56:30;1.73;;;1.37;;
19887;SDS011;10106;51.332;12.336;2023-05-10T16:58:56;1.27;;;1.27;;
19887;SDS011;10106;51.332;12.336;2023-05-10T17:01:22;1.20;;;1.10;;
19887;SDS011;10106;51.332;12.336;2023-05-10T17:03:48;1.47;;;1.37;;
19887;SDS011;10106;51.332;12.336;2023-05-10T17:06:13;1.57;;;1.47;;
19887;SDS011;10106;51.332;12.336;2023-05-10T17:08:40;1.63;;;1.53;;
19887;SDS011;10106;51.332;12.336;2023-05-10T17:11:06;2.40;;;2.07;;
19887;SDS011;10106;51.332;12.336;2023-05-10T17:13:31;2.80;;;1.77;;
19887;SDS011;10106;51.332;12.336;2023-05-10T17:15:59;2.00;;;1.80;;
19887;SDS011;10106;51.332;12.336;2023-05-10T17:18:27;2.17;;;1.90;;
19887;SDS011;10106;51.332;12.336;2023-05-10T17:20:56;2.63;;;2.13;;
19887;SDS011;10106;51.332;12.336;2023-05-10T17:23:22;2.40;;;2.07;;
19887;SDS011;10106;51.332;12.336;2023-05-10T17:25:48;3.03;;;2.43;;
19887;SDS011;10106;51.332;12.336;2023-05-10T17:28:13;2.33;;;2.10;;
19887;SDS011;10106;51.332;12.336;2023-05-10T17:30:39;2.17;;;2.00;;
19887;SDS011;10106;51.332;12.336;2023-05-10T17:33:05;2.30;;;1.97;;
19887;SDS011;10106;51.332;12.336;2023-05-10T17:35:31;2.50;;;2.30;;
19887;SDS011;10106;51.332;12.336;2023-05-10T17:40:28;4.33;;;2.47;;
19887;SDS011;10106;51.332;12.336;2023-05-10T17:42:54;3.63;;;2.87;;
19887;SDS011;10106;51.332;12.336;2023-05-10T17:45:20;3.40;;;2.90;;
19887;SDS011;10106;51.332;12.336;2023-05-10T17:47:46;3.70;;;2.80;;
19887;SDS011;10106;51.332;12.336;2023-05-10T17:50:12;3.73;;;2.77;;
19887;SDS011;10106;51.332;12.336;2023-05-10T17:52:38;5.23;;;3.13;;
19887;SDS011;10106;51.332;12.336;2023-05-10T17:55:05;3.53;;;2.80;;
19887;SDS011;10106;51.332;12.336;2023-05-10T17:57:31;4.10;;;2.90;;
19887;SDS011;10106;51.332;12.336;2023-05-10T17:59:57;5.63;;;2.70;;
19887;SDS011;10106;51.332;12.336;2023-05-10T18:02:23;6.00;;;2.97;;
19887;SDS011;10106;51.332;12.336;2023-05-10T18:04:51;2.30;;;2.10;;
19887;SDS011;10106;51.332;12.336;2023-05-10T18:07:17;3.53;;;2.57;;
19887;SDS011;10106;51.332;12.336;2023-05-10T18:09:47;3.80;;;2.80;;
19887;SDS011;10106;51.332;12.336;2023-05-10T18:12:16;3.90;;;2.77;;
19887;SDS011;10106;51.332;12.336;2023-05-10T18:14:42;5.03;;;3.37;;
19887;SDS011;10106;51.332;12.336;2023-05-10T18:17:08;4.57;;;2.93;;
19887;SDS011;10106;51.332;12.336;2023-05-10T18:19:38;5.80;;;3.30;;
19887;SDS011;10106;51.332;12.336;2023-05-10T18:22:07;5.60;;;2.80;;
19887;SDS011;10106;51.332;12.336;2023-05-10T18:24:36;3.77;;;2.47;;
19887;SDS011;10106;51.332;12.336;2023-05-10T18:27:01;2.97;;;2.30;;
19887;SDS011;10106;51.332;12.336;2023-05-10T18:29:27;3.83;;;2.90;;
19887;SDS011;10106;51.332;12.336;2023-05-10T18:31:56;4.10;;;2.47;;
19887;SDS011;10106;51.332;12.336;2023-05-10T18:34:25;3.83;;;3.17;;
19887;SDS011;10106;51.332;12.336;2023-05-10T18:36:51;2.87;;;2.27;;
19887;SDS011;10106;51.332;12.336;2023-05-10T18:39:17;4.20;;;2.80;;
19887;SDS011;10106;51.332;12.336;2023-05-10T18:41:43;4.03;;;2.50;;
19887;SDS011;10106;51.332;12.336;2023-05-10T18:44:10;3.93;;;2.87;;
19887;SDS011;10106;51.332;12.336;2023-05-10T18:46:38;3.07;;;2.30;;
19887;SDS011;10106;51.332;12.336;2023-05-10T18:49:05;5.00;;;3.13;;
19887;SDS011;10106;51.332;12.336;2023-05-10T18:51:32;3.93;;;2.40;;
19887;SDS011;10106;51.332;12.336;2023-05-10T18:53:58;4.37;;;3.13;;
19887;SDS011;10106;51.332;12.336;2023-05-10T18:56:24;3.87;;;3.10;;
19887;SDS011;10106;51.332;12.336;2023-05-10T18:58:50;4.30;;;3.17;;
19887;SDS011;10106;51.332;12.336;2023-05-10T19:01:17;3.70;;;2.60;;
19887;SDS011;10106;51.332;12.336;2023-05-10T19:03:42;2.83;;;2.40;;
19887;SDS011;10106;51.332;12.336;2023-05-10T19:06:09;5.20;;;3.00;;
19887;SDS011;10106;51.332;12.336;2023-05-10T19:08:35;2.80;;;2.50;;
19887;SDS011;10106;51.332;12.336;2023-05-10T19:11:01;4.30;;;2.47;;
19887;SDS011;10106;51.332;12.336;2023-05-10T19:13:29;5.33;;;2.90;;
19887;SDS011;10106;51.332;12.336;2023-05-10T23:50:56;8.90;;;4.80;;
19887;SDS011;10106;51.332;12.336;2023-05-10T23:53:22;6.50;;;4.33;;
19887;SDS011;10106;51.332;12.336;2023-05-10T23:55:47;5.87;;;4.10;;
19887;SDS011;10106;51.332;12.336;2023-05-10T23:58:13;10.50;;;5.13;;
